sensor_id;sensor_type;location;lat;lon;timestamp;P1;durP1;ratioP1;P2;durP2;ratioP2
71937;SDS011;59810;48.800;9.086;2022-11-21T00:00:35;1.93;;;0.40;;
71937;SDS011;59810;48.800;9.086;2022-11-21T00:03:01;0.80;;;0.30;;
71937;SDS011;59810;48.800;9.086;2022-11-21T00:05:29;1.80;;;0.40;;
71937;SDS011;59810;48.800;9.086;2022-11-21T00:07:55;0.75;;;0.20;;
71937;SDS011;59810;48.800;9.086;2022-11-21T00:10:22;1.20;;;0.35;;
71937;SDS011;59810;48.800;9.086;2022-11-21T00:12:52;2.00;;;0.30;;
71937;SDS011;59810;48.800;9.086;2022-11-21T00:15:19;0.88;;;0.20;;
71937;SDS011;59810;48.800;9.086;2022-11-21T00:17:44;2.47;;;0.30;;
71937;SDS011;59810;48.800;9.086;2022-11-21T00:20:09;1.48;;;0.32;;
71937;SDS011;59810;48.800;9.086;2022-11-21T00:22:36;0.80;;;0.20;;
71937;SDS011;59810;48.800;9.086;2022-11-21T00:25:01;0.75;;;0.20;;
71937;SDS011;59810;48.800;9.086;2022-11-21T00:27:27;2.53;;;0.30;;
71937;SDS011;59810;48.800;9.086;2022-11-21T00:29:52;1.40;;;0.23;;
71937;SDS011;59810;48.800;9.086;2022-11-21T00:32:18;0.90;;;0.30;;
71937;SDS011;59810;48.800;9.086;2022-11-21T00:34:43;0.77;;;0.20;;
71937;SDS011;59810;48.800;9.086;2022-11-21T00:37:08;1.63;;;0.40;;
71937;SDS011;59810;48.800;9.086;2022-11-21T00:39:34;1.30;;;0.30;;
71937;SDS011;59810;48.800;9.086;2022-11-21T00:42:01;1.55;;;0.30;;
71937;SDS011;59810;48.800;9.086;2022-11-21T00:44:27;1.07;;;0.20;;
71937;SDS011;59810;48.800;9.086;2022-11-21T00:46:54;0.40;;;0.20;;
71937;SDS011;59810;48.800;9.086;2022-11-21T00:49:20;2.93;;;0.20;;
71937;SDS011;59810;48.800;9.086;2022-11-21T00:51:45;1.87;;;0.30;;
71937;SDS011;59810;48.800;9.086;2022-11-21T00:54:10;1.57;;;0.30;;
71937;SDS011;59810;48.800;9.086;2022-11-21T00:56:36;0.50;;;0.20;;
71937;SDS011;59810;48.800;9.086;2022-11-21T00:59:01;1.20;;;0.20;;
71937;SDS011;59810;48.800;9.086;2022-11-21T01:01:26;1.03;;;0.30;;
71937;SDS011;59810;48.800;9.086;2022-11-21T01:03:52;0.77;;;0.20;;
71937;SDS011;59810;48.800;9.086;2022-11-21T01:06:17;0.63;;;0.20;;
71937;SDS011;59810;48.800;9.086;2022-11-21T01:08:43;1.00;;;0.20;;
71937;SDS011;59810;48.800;9.086;2022-11-21T01:11:16;1.05;;;0.30;;
71937;SDS011;59810;48.800;9.086;2022-11-21T01:13:43;1.30;;;0.25;;
71937;SDS011;59810;48.800;9.086;2022-11-21T01:16:15;1.83;;;0.20;;
71937;SDS011;59810;48.800;9.086;2022-11-21T01:18:44;1.98;;;0.30;;
71937;SDS011;59810;48.800;9.086;2022-11-21T01:23:43;2.58;;;0.40;;
71937;SDS011;59810;48.800;9.086;2022-11-21T01:26:13;3.75;;;0.50;;
71937;SDS011;59810;48.800;9.086;2022-11-21T01:28:40;1.10;;;0.30;;
71937;SDS011;59810;48.800;9.086;2022-11-21T01:31:08;2.50;;;0.30;;
71937;SDS011;59810;48.800;9.086;2022-11-21T01:33:38;1.98;;;0.25;;
71937;SDS011;59810;48.800;9.086;2022-11-21T01:36:11;3.20;;;1.03;;
71937;SDS011;59810;48.800;9.086;2022-11-21T01:38:45;2.72;;;0.40;;
71937;SDS011;59810;48.800;9.086;2022-11-21T01:41:13;4.05;;;0.63;;
71937;SDS011;59810;48.800;9.086;2022-11-21T01:43:43;1.50;;;0.20;;
71937;SDS011;59810;48.800;9.086;2022-11-21T01:49:11;4.77;;;0.33;;
71937;SDS011;59810;48.800;9.086;2022-11-21T01:57:11;2.60;;;0.50;;
71937;SDS011;59810;48.800;9.086;2022-11-21T01:59:41;1.40;;;0.22;;
71937;SDS011;59810;48.800;9.086;2022-11-21T02:02:09;3.73;;;0.40;;
71937;SDS011;59810;48.800;9.086;2022-11-21T02:04:37;2.35;;;0.20;;
71937;SDS011;59810;48.800;9.086;2022-11-21T02:07:06;3.50;;;0.30;;
71937;SDS011;59810;48.800;9.086;2022-11-21T02:09:33;1.60;;;0.35;;
71937;SDS011;59810;48.800;9.086;2022-11-21T02:12:03;1.92;;;0.30;;
71937;SDS011;59810;48.800;9.086;2022-11-21T02:14:32;2.80;;;0.40;;
71937;SDS011;59810;48.800;9.086;2022-11-21T02:17:02;4.38;;;0.40;;
71937;SDS011;59810;48.800;9.086;2022-11-21T02:22:14;3.08;;;0.50;;
71937;SDS011;59810;48.800;9.086;2022-11-21T02:24:45;1.80;;;0.30;;
71937;SDS011;59810;48.800;9.086;2022-11-21T02:27:21;2.23;;;0.50;;
71937;SDS011;59810;48.800;9.086;2022-11-21T02:29:48;5.32;;;0.60;;
71937;SDS011;59810;48.800;9.086;2022-11-21T02:32:24;4.97;;;0.70;;
71937;SDS011;59810;48.800;9.086;2022-11-21T02:35:00;3.10;;;0.32;;
71937;SDS011;59810;48.800;9.086;2022-11-21T02:37:30;1.80;;;0.30;;
71937;SDS011;59810;48.800;9.086;2022-11-21T02:39:57;1.17;;;0.30;;
71937;SDS011;59810;48.800;9.086;2022-11-21T02:42:40;0.93;;;0.20;;
71937;SDS011;59810;48.800;9.086;2022-11-21T02:47:50;1.55;;;0.20;;
71937;SDS011;59810;48.800;9.086;2022-11-21T02:50:19;2.67;;;0.32;;
71937;SDS011;59810;48.800;9.086;2022-11-21T02:52:46;2.05;;;0.40;;
71937;SDS011;59810;48.800;9.086;2022-11-21T02:55:11;1.93;;;0.40;;
71937;SDS011;59810;48.800;9.086;2022-11-21T02:57:37;1.38;;;0.30;;
71937;SDS011;59810;48.800;9.086;2022-11-21T03:00:09;1.77;;;0.40;;
71937;SDS011;59810;48.800;9.086;2022-11-21T03:02:35;1.02;;;0.20;;
71937;SDS011;59810;48.800;9.086;2022-11-21T03:05:01;0.50;;;0.20;;
71937;SDS011;59810;48.800;9.086;2022-11-21T03:07:28;0.90;;;0.30;;
71937;SDS011;59810;48.800;9.086;2022-11-21T03:09:53;1.97;;;0.20;;
71937;SDS011;59810;48.800;9.086;2022-11-21T03:12:21;0.90;;;0.20;;
71937;SDS011;59810;48.800;9.086;2022-11-21T03:14:46;0.63;;;0.20;;
71937;SDS011;59810;48.800;9.086;2022-11-21T03:17:12;0.53;;;0.20;;
71937;SDS011;59810;48.800;9.086;2022-11-21T03:19:37;0.93;;;0.20;;
71937;SDS011;59810;48.800;9.086;2022-11-21T03:22:02;0.87;;;0.20;;
71937;SDS011;59810;48.800;9.086;2022-11-21T03:24:28;1.27;;;0.20;;
71937;SDS011;59810;48.800;9.086;2022-11-21T03:26:53;0.50;;;0.20;;
71937;SDS011;59810;48.800;9.086;2022-11-21T03:29:18;0.67;;;0.20;;
71937;SDS011;59810;48.800;9.086;2022-11-21T03:31:44;1.20;;;0.20;;
71937;SDS011;59810;48.800;9.086;2022-11-21T03:34:09;0.67;;;0.20;;
71937;SDS011;59810;48.800;9.086;2022-11-21T03:36:34;1.63;;;0.20;;
71937;SDS011;59810;48.800;9.086;2022-11-21T03:39:00;1.07;;;0.30;;
71937;SDS011;59810;48.800;9.086;2022-11-21T03:41:25;3.27;;;0.20;;
71937;SDS011;59810;48.800;9.086;2022-11-21T03:43:55;1.42;;;0.20;;
71937;SDS011;59810;48.800;9.086;2022-11-21T03:46:29;0.77;;;0.30;;
71937;SDS011;59810;48.800;9.086;2022-11-21T03:48:56;0.82;;;0.20;;
71937;SDS011;59810;48.800;9.086;2022-11-21T03:51:21;1.23;;;0.30;;
71937;SDS011;59810;48.800;9.086;2022-11-21T03:53:47;2.95;;;0.20;;
71937;SDS011;59810;48.800;9.086;2022-11-21T03:56:14;1.45;;;0.22;;
71937;SDS011;59810;48.800;9.086;2022-11-21T03:58:39;2.73;;;0.27;;
71937;SDS011;59810;48.800;9.086;2022-11-21T04:01:05;0.67;;;0.20;;
71937;SDS011;59810;48.800;9.086;2022-11-21T04:03:31;1.40;;;0.30;;
71937;SDS011;59810;48.800;9.086;2022-11-21T04:05:56;0.97;;;0.20;;
71937;SDS011;59810;48.800;9.086;2022-11-21T04:08:22;1.63;;;0.20;;
71937;SDS011;59810;48.800;9.086;2022-11-21T04:10:48;1.83;;;0.20;;
71937;SDS011;59810;48.800;9.086;2022-11-21T04:13:14;1.87;;;0.30;;
71937;SDS011;59810;48.800;9.086;2022-11-21T04:15:40;0.93;;;0.20;;
71937;SDS011;59810;48.800;9.086;2022-11-21T04:18:06;1.00;;;0.30;;
71937;SDS011;59810;48.800;9.086;2022-11-21T04:20:31;1.45;;;0.30;;
71937;SDS011;59810;48.800;9.086;2022-11-21T04:22:57;0.53;;;0.20;;
71937;SDS011;59810;48.800;9.086;2022-11-21T04:25:22;0.80;;;0.30;;
71937;SDS011;59810;48.800;9.086;2022-11-21T04:27:47;3.53;;;0.30;;
71937;SDS011;59810;48.800;9.086;2022-11-21T04:30:15;2.80;;;0.40;;
71937;SDS011;59810;48.800;9.086;2022-11-21T04:32:41;1.58;;;0.30;;
71937;SDS011;59810;48.800;9.086;2022-11-21T04:35:06;1.40;;;0.20;;
71937;SDS011;59810;48.800;9.086;2022-11-21T04:37:32;1.03;;;0.20;;
71937;SDS011;59810;48.800;9.086;2022-11-21T04:39:57;0.85;;;0.22;;
71937;SDS011;59810;48.800;9.086;2022-11-21T04:42:23;1.63;;;0.40;;
71937;SDS011;59810;48.800;9.086;2022-11-21T04:44:48;3.50;;;0.30;;
71937;SDS011;59810;48.800;9.086;2022-11-21T04:47:14;1.40;;;0.30;;
71937;SDS011;59810;48.800;9.086;2022-11-21T04:49:39;3.65;;;0.30;;
71937;SDS011;59810;48.800;9.086;2022-11-21T04:52:07;1.57;;;0.37;;
71937;SDS011;59810;48.800;9.086;2022-11-21T04:54:33;1.45;;;0.30;;
71937;SDS011;59810;48.800;9.086;2022-11-21T04:56:58;2.60;;;0.40;;
71937;SDS011;59810;48.800;9.086;2022-11-21T04:59:23;2.87;;;0.30;;
71937;SDS011;59810;48.800;9.086;2022-11-21T05:01:49;1.43;;;0.30;;
71937;SDS011;59810;48.800;9.086;2022-11-21T05:04:14;1.17;;;0.27;;
71937;SDS011;59810;48.800;9.086;2022-11-21T05:06:39;1.70;;;0.30;;
71937;SDS011;59810;48.800;9.086;2022-11-21T05:09:07;2.23;;;0.40;;
71937;SDS011;59810;48.800;9.086;2022-11-21T05:11:32;1.75;;;0.40;;
71937;SDS011;59810;48.800;9.086;2022-11-21T05:14:16;4.50;;;0.40;;
71937;SDS011;59810;48.800;9.086;2022-11-21T05:16:41;2.55;;;0.40;;
71937;SDS011;59810;48.800;9.086;2022-11-21T05:19:07;1.13;;;0.40;;
71937;SDS011;59810;48.800;9.086;2022-11-21T05:21:36;1.50;;;0.40;;
71937;SDS011;59810;48.800;9.086;2022-11-21T05:24:03;3.38;;;0.70;;
71937;SDS011;59810;48.800;9.086;2022-11-21T05:26:29;4.57;;;0.70;;
71937;SDS011;59810;48.800;9.086;2022-11-21T05:28:54;2.87;;;0.47;;
71937;SDS011;59810;48.800;9.086;2022-11-21T05:31:19;4.10;;;0.73;;
71937;SDS011;59810;48.800;9.086;2022-11-21T05:33:47;2.93;;;0.80;;
71937;SDS011;59810;48.800;9.086;2022-11-21T05:36:13;5.20;;;0.60;;
71937;SDS011;59810;48.800;9.086;2022-11-21T05:38:38;3.67;;;0.57;;
71937;SDS011;59810;48.800;9.086;2022-11-21T05:41:03;2.23;;;0.60;;
71937;SDS011;59810;48.800;9.086;2022-11-21T05:43:29;2.53;;;0.60;;
71937;SDS011;59810;48.800;9.086;2022-11-21T05:46:16;2.05;;;0.70;;
71937;SDS011;59810;48.800;9.086;2022-11-21T05:48:46;2.47;;;0.60;;
71937;SDS011;59810;48.800;9.086;2022-11-21T05:51:13;6.90;;;0.77;;
71937;SDS011;59810;48.800;9.086;2022-11-21T05:53:42;2.70;;;0.50;;
71937;SDS011;59810;48.800;9.086;2022-11-21T05:56:08;1.70;;;0.50;;
71937;SDS011;59810;48.800;9.086;2022-11-21T05:58:35;5.45;;;0.63;;
71937;SDS011;59810;48.800;9.086;2022-11-21T06:01:02;4.18;;;0.40;;
71937;SDS011;59810;48.800;9.086;2022-11-21T06:03:32;3.43;;;0.60;;
71937;SDS011;59810;48.800;9.086;2022-11-21T06:08:35;3.00;;;0.80;;
71937;SDS011;59810;48.800;9.086;2022-11-21T06:11:06;2.35;;;0.50;;
71937;SDS011;59810;48.800;9.086;2022-11-21T06:13:32;3.42;;;0.60;;
71937;SDS011;59810;48.800;9.086;2022-11-21T06:18:30;2.45;;;0.40;;
71937;SDS011;59810;48.800;9.086;2022-11-21T06:21:04;2.97;;;0.40;;
71937;SDS011;59810;48.800;9.086;2022-11-21T06:23:34;2.97;;;0.70;;
71937;SDS011;59810;48.800;9.086;2022-11-21T06:26:01;2.73;;;0.70;;
71937;SDS011;59810;48.800;9.086;2022-11-21T06:28:33;3.20;;;0.55;;
71937;SDS011;59810;48.800;9.086;2022-11-21T06:31:03;1.98;;;0.40;;
71937;SDS011;59810;48.800;9.086;2022-11-21T06:33:28;2.83;;;0.50;;
71937;SDS011;59810;48.800;9.086;2022-11-21T06:35:53;1.43;;;0.33;;
71937;SDS011;59810;48.800;9.086;2022-11-21T06:38:22;4.57;;;0.53;;
71937;SDS011;59810;48.800;9.086;2022-11-21T06:40:47;2.97;;;0.40;;
71937;SDS011;59810;48.800;9.086;2022-11-21T06:43:12;2.93;;;0.80;;
71937;SDS011;59810;48.800;9.086;2022-11-21T06:45:38;3.20;;;0.50;;
71937;SDS011;59810;48.800;9.086;2022-11-21T06:48:06;2.57;;;0.70;;
71937;SDS011;59810;48.800;9.086;2022-11-21T06:50:34;3.65;;;0.65;;
71937;SDS011;59810;48.800;9.086;2022-11-21T06:53:26;4.18;;;0.60;;
71937;SDS011;59810;48.800;9.086;2022-11-21T06:56:02;5.50;;;0.80;;
71937;SDS011;59810;48.800;9.086;2022-11-21T06:58:49;4.30;;;0.60;;
71937;SDS011;59810;48.800;9.086;2022-11-21T07:01:16;3.15;;;0.98;;
71937;SDS011;59810;48.800;9.086;2022-11-21T07:03:42;2.60;;;0.40;;
71937;SDS011;59810;48.800;9.086;2022-11-21T07:06:08;2.77;;;0.57;;
71937;SDS011;59810;48.800;9.086;2022-11-21T07:08:34;2.60;;;0.50;;
71937;SDS011;59810;48.800;9.086;2022-11-21T07:11:01;4.90;;;0.65;;
71937;SDS011;59810;48.800;9.086;2022-11-21T07:13:31;2.55;;;0.55;;
71937;SDS011;59810;48.800;9.086;2022-11-21T07:16:01;7.50;;;0.83;;
71937;SDS011;59810;48.800;9.086;2022-11-21T07:18:28;5.75;;;0.80;;
71937;SDS011;59810;48.800;9.086;2022-11-21T07:21:00;3.35;;;0.80;;
71937;SDS011;59810;48.800;9.086;2022-11-21T07:23:27;5.43;;;0.70;;
71937;SDS011;59810;48.800;9.086;2022-11-21T07:25:54;5.80;;;1.20;;
71937;SDS011;59810;48.800;9.086;2022-11-21T07:28:21;6.20;;;1.02;;
71937;SDS011;59810;48.800;9.086;2022-11-21T07:30:47;4.60;;;0.80;;
71937;SDS011;59810;48.800;9.086;2022-11-21T07:33:12;6.67;;;1.20;;
71937;SDS011;59810;48.800;9.086;2022-11-21T07:35:37;6.20;;;1.40;;
71937;SDS011;59810;48.800;9.086;2022-11-21T07:38:03;10.73;;;1.53;;
71937;SDS011;59810;48.800;9.086;2022-11-21T07:40:29;6.95;;;1.70;;
71937;SDS011;59810;48.800;9.086;2022-11-21T07:43:01;5.70;;;1.02;;
71937;SDS011;59810;48.800;9.086;2022-11-21T07:45:27;4.78;;;1.10;;
71937;SDS011;59810;48.800;9.086;2022-11-21T07:47:56;6.77;;;1.10;;
71937;SDS011;59810;48.800;9.086;2022-11-21T07:50:27;4.10;;;0.90;;
71937;SDS011;59810;48.800;9.086;2022-11-21T07:53:00;4.80;;;1.10;;
71937;SDS011;59810;48.800;9.086;2022-11-21T07:55:27;4.65;;;0.85;;
71937;SDS011;59810;48.800;9.086;2022-11-21T07:57:59;4.65;;;0.82;;
71937;SDS011;59810;48.800;9.086;2022-11-21T08:00:28;4.78;;;1.15;;
71937;SDS011;59810;48.800;9.086;2022-11-21T08:02:54;5.10;;;1.15;;
71937;SDS011;59810;48.800;9.086;2022-11-21T08:05:20;10.63;;;1.20;;
71937;SDS011;59810;48.800;9.086;2022-11-21T08:07:45;5.57;;;0.80;;
71937;SDS011;59810;48.800;9.086;2022-11-21T08:10:11;6.10;;;0.87;;
71937;SDS011;59810;48.800;9.086;2022-11-21T08:12:39;9.40;;;1.20;;
71937;SDS011;59810;48.800;9.086;2022-11-21T08:15:05;9.00;;;1.30;;
71937;SDS011;59810;48.800;9.086;2022-11-21T08:17:31;7.35;;;1.42;;
71937;SDS011;59810;48.800;9.086;2022-11-21T08:19:57;9.15;;;1.60;;
71937;SDS011;59810;48.800;9.086;2022-11-21T08:22:24;10.27;;;1.20;;
71937;SDS011;59810;48.800;9.086;2022-11-21T08:24:49;6.88;;;1.35;;
71937;SDS011;59810;48.800;9.086;2022-11-21T08:27:17;18.40;;;1.50;;
71937;SDS011;59810;48.800;9.086;2022-11-21T08:29:45;13.82;;;1.83;;
71937;SDS011;59810;48.800;9.086;2022-11-21T08:32:13;12.63;;;1.50;;
71937;SDS011;59810;48.800;9.086;2022-11-21T08:34:41;11.83;;;2.40;;
71937;SDS011;59810;48.800;9.086;2022-11-21T08:37:06;14.77;;;2.45;;
71937;SDS011;59810;48.800;9.086;2022-11-21T08:39:32;25.57;;;2.97;;
71937;SDS011;59810;48.800;9.086;2022-11-21T08:41:58;24.00;;;2.83;;
71937;SDS011;59810;48.800;9.086;2022-11-21T08:44:32;30.10;;;3.25;;
71937;SDS011;59810;48.800;9.086;2022-11-21T08:46:59;24.15;;;1.85;;
71937;SDS011;59810;48.800;9.086;2022-11-21T08:49:29;23.00;;;3.40;;
71937;SDS011;59810;48.800;9.086;2022-11-21T08:51:55;17.40;;;2.07;;
71937;SDS011;59810;48.800;9.086;2022-11-21T08:54:21;13.10;;;2.00;;
71937;SDS011;59810;48.800;9.086;2022-11-21T08:56:48;9.55;;;1.60;;
71937;SDS011;59810;48.800;9.086;2022-11-21T08:59:14;4.65;;;1.00;;
71937;SDS011;59810;48.800;9.086;2022-11-21T09:01:43;7.63;;;1.00;;
71937;SDS011;59810;48.800;9.086;2022-11-21T09:04:11;4.23;;;0.60;;
71937;SDS011;59810;48.800;9.086;2022-11-21T09:06:41;6.95;;;0.55;;
71937;SDS011;59810;48.800;9.086;2022-11-21T09:09:06;8.37;;;0.70;;
71937;SDS011;59810;48.800;9.086;2022-11-21T09:11:32;4.68;;;0.60;;
71937;SDS011;59810;48.800;9.086;2022-11-21T09:13:57;5.93;;;0.60;;
71937;SDS011;59810;48.800;9.086;2022-11-21T09:16:42;3.53;;;0.80;;
71937;SDS011;59810;48.800;9.086;2022-11-21T09:19:26;6.97;;;0.90;;
71937;SDS011;59810;48.800;9.086;2022-11-21T09:21:54;7.13;;;0.80;;
71937;SDS011;59810;48.800;9.086;2022-11-21T09:24:22;5.30;;;0.80;;
71937;SDS011;59810;48.800;9.086;2022-11-21T09:26:47;6.83;;;0.90;;
71937;SDS011;59810;48.800;9.086;2022-11-21T09:29:15;3.33;;;0.70;;
71937;SDS011;59810;48.800;9.086;2022-11-21T09:31:41;6.80;;;1.43;;
71937;SDS011;59810;48.800;9.086;2022-11-21T09:34:06;10.40;;;1.20;;
71937;SDS011;59810;48.800;9.086;2022-11-21T09:36:32;3.25;;;0.70;;
71937;SDS011;59810;48.800;9.086;2022-11-21T09:38:57;5.63;;;0.60;;
71937;SDS011;59810;48.800;9.086;2022-11-21T09:41:40;7.37;;;1.30;;
71937;SDS011;59810;48.800;9.086;2022-11-21T09:47:40;6.03;;;0.60;;
71937;SDS011;59810;48.800;9.086;2022-11-21T09:55:06;5.83;;;0.60;;
71937;SDS011;59810;48.800;9.086;2022-11-21T09:57:42;3.30;;;1.00;;
71937;SDS011;59810;48.800;9.086;2022-11-21T10:00:14;6.97;;;0.82;;
71937;SDS011;59810;48.800;9.086;2022-11-21T10:02:44;4.68;;;0.65;;
71937;SDS011;59810;48.800;9.086;2022-11-21T10:05:13;6.43;;;0.70;;
71937;SDS011;59810;48.800;9.086;2022-11-21T10:07:42;4.47;;;0.47;;
71937;SDS011;59810;48.800;9.086;2022-11-21T10:10:11;2.57;;;0.50;;
71937;SDS011;59810;48.800;9.086;2022-11-21T10:15:49;5.28;;;0.70;;
71937;SDS011;59810;48.800;9.086;2022-11-21T10:18:30;3.58;;;0.50;;
71937;SDS011;59810;48.800;9.086;2022-11-21T10:31:42;4.55;;;0.50;;
71937;SDS011;59810;48.800;9.086;2022-11-21T10:34:11;6.82;;;0.60;;
71937;SDS011;59810;48.800;9.086;2022-11-21T10:36:39;6.13;;;0.93;;
71937;SDS011;59810;48.800;9.086;2022-11-21T10:39:17;5.07;;;0.82;;
71937;SDS011;59810;48.800;9.086;2022-11-21T10:44:40;5.25;;;0.75;;
71937;SDS011;59810;48.800;9.086;2022-11-21T10:47:30;2.60;;;0.60;;
71937;SDS011;59810;48.800;9.086;2022-11-21T10:53:19;4.57;;;0.47;;
71937;SDS011;59810;48.800;9.086;2022-11-21T10:56:05;6.38;;;1.17;;
71937;SDS011;59810;48.800;9.086;2022-11-21T10:58:34;9.32;;;0.88;;
71937;SDS011;59810;48.800;9.086;2022-11-21T11:01:04;8.07;;;1.00;;
71937;SDS011;59810;48.800;9.086;2022-11-21T11:03:32;3.93;;;0.70;;
71937;SDS011;59810;48.800;9.086;2022-11-21T11:05:57;3.35;;;0.70;;
71937;SDS011;59810;48.800;9.086;2022-11-21T11:08:25;6.47;;;0.70;;
71937;SDS011;59810;48.800;9.086;2022-11-21T11:11:05;2.55;;;0.50;;
71937;SDS011;59810;48.800;9.086;2022-11-21T11:13:49;4.47;;;0.60;;
71937;SDS011;59810;48.800;9.086;2022-11-21T11:16:21;5.47;;;0.57;;
71937;SDS011;59810;48.800;9.086;2022-11-21T11:21:23;5.13;;;0.60;;
71937;SDS011;59810;48.800;9.086;2022-11-21T11:23:51;5.50;;;0.63;;
71937;SDS011;59810;48.800;9.086;2022-11-21T11:28:49;2.80;;;0.45;;
71937;SDS011;59810;48.800;9.086;2022-11-21T11:31:15;5.40;;;0.50;;
71937;SDS011;59810;48.800;9.086;2022-11-21T11:38:56;3.17;;;0.55;;
71937;SDS011;59810;48.800;9.086;2022-11-21T11:44:55;2.73;;;0.57;;
71937;SDS011;59810;48.800;9.086;2022-11-21T11:47:47;3.70;;;0.50;;
71937;SDS011;59810;48.800;9.086;2022-11-21T11:50:23;4.68;;;0.82;;
71937;SDS011;59810;48.800;9.086;2022-11-21T11:53:10;7.97;;;0.80;;
71937;SDS011;59810;48.800;9.086;2022-11-21T11:56:42;2.20;;;0.40;;
71937;SDS011;59810;48.800;9.086;2022-11-21T11:58:52;3.77;;;0.80;;
71937;SDS011;59810;48.800;9.086;2022-11-21T12:01:32;6.07;;;0.40;;
71937;SDS011;59810;48.800;9.086;2022-11-21T12:04:11;3.92;;;0.60;;
71937;SDS011;59810;48.800;9.086;2022-11-21T12:07:01;3.90;;;0.68;;
71937;SDS011;59810;48.800;9.086;2022-11-21T12:12:09;5.20;;;0.40;;
71937;SDS011;59810;48.800;9.086;2022-11-21T12:17:35;3.08;;;0.57;;
71937;SDS011;59810;48.800;9.086;2022-11-21T12:23:09;3.28;;;0.65;;
71937;SDS011;59810;48.800;9.086;2022-11-21T12:25:48;8.17;;;1.10;;
71937;SDS011;59810;48.800;9.086;2022-11-21T12:36:43;2.77;;;0.50;;
71937;SDS011;59810;48.800;9.086;2022-11-21T12:57:15;5.47;;;0.77;;
71937;SDS011;59810;48.800;9.086;2022-11-21T13:05:04;2.08;;;0.50;;
71937;SDS011;59810;48.800;9.086;2022-11-21T13:07:36;4.57;;;0.63;;
71937;SDS011;59810;48.800;9.086;2022-11-21T13:10:02;6.53;;;0.67;;
71937;SDS011;59810;48.800;9.086;2022-11-21T13:12:35;3.97;;;0.70;;
71937;SDS011;59810;48.800;9.086;2022-11-21T13:18:22;4.70;;;0.50;;
71937;SDS011;59810;48.800;9.086;2022-11-21T13:20:52;3.85;;;0.68;;
71937;SDS011;59810;48.800;9.086;2022-11-21T13:31:33;3.63;;;0.60;;
71937;SDS011;59810;48.800;9.086;2022-11-21T13:34:01;5.97;;;0.70;;
71937;SDS011;59810;48.800;9.086;2022-11-21T13:49:33;5.82;;;0.82;;
71937;SDS011;59810;48.800;9.086;2022-11-21T13:52:07;5.37;;;0.70;;
71937;SDS011;59810;48.800;9.086;2022-11-21T14:08:42;3.53;;;0.70;;
71937;SDS011;59810;48.800;9.086;2022-11-21T14:11:19;3.95;;;0.70;;
71937;SDS011;59810;48.800;9.086;2022-11-21T14:13:56;6.78;;;0.77;;
71937;SDS011;59810;48.800;9.086;2022-11-21T14:19:05;5.43;;;0.77;;
71937;SDS011;59810;48.800;9.086;2022-11-21T14:21:37;5.95;;;0.70;;
71937;SDS011;59810;48.800;9.086;2022-11-21T14:24:10;4.78;;;0.70;;
71937;SDS011;59810;48.800;9.086;2022-11-21T14:26:39;5.22;;;0.85;;
71937;SDS011;59810;48.800;9.086;2022-11-21T14:29:19;4.82;;;0.80;;
71937;SDS011;59810;48.800;9.086;2022-11-21T14:31:54;6.17;;;0.90;;
71937;SDS011;59810;48.800;9.086;2022-11-21T14:34:23;2.90;;;0.45;;
71937;SDS011;59810;48.800;9.086;2022-11-21T14:36:50;5.80;;;0.85;;
71937;SDS011;59810;48.800;9.086;2022-11-21T14:39:18;3.83;;;0.50;;
71937;SDS011;59810;48.800;9.086;2022-11-21T14:41:48;4.00;;;0.50;;
71937;SDS011;59810;48.800;9.086;2022-11-21T14:44:17;2.93;;;0.87;;
71937;SDS011;59810;48.800;9.086;2022-11-21T14:46:43;4.72;;;0.55;;
71937;SDS011;59810;48.800;9.086;2022-11-21T14:51:40;3.45;;;0.50;;
71937;SDS011;59810;48.800;9.086;2022-11-21T14:54:18;3.67;;;0.65;;
71937;SDS011;59810;48.800;9.086;2022-11-21T14:56:46;3.33;;;0.60;;
71937;SDS011;59810;48.800;9.086;2022-11-21T14:59:46;4.75;;;0.93;;
71937;SDS011;59810;48.800;9.086;2022-11-21T15:02:12;6.07;;;1.05;;
71937;SDS011;59810;48.800;9.086;2022-11-21T15:04:40;2.95;;;0.60;;
71937;SDS011;59810;48.800;9.086;2022-11-21T15:07:19;5.35;;;1.05;;
71937;SDS011;59810;48.800;9.086;2022-11-21T15:09:48;4.10;;;0.87;;
71937;SDS011;59810;48.800;9.086;2022-11-21T15:12:17;5.07;;;0.80;;
71937;SDS011;59810;48.800;9.086;2022-11-21T15:14:59;5.15;;;1.20;;
71937;SDS011;59810;48.800;9.086;2022-11-21T15:17:28;4.30;;;0.60;;
71937;SDS011;59810;48.800;9.086;2022-11-21T15:22:37;5.00;;;0.88;;
71937;SDS011;59810;48.800;9.086;2022-11-21T15:25:06;4.75;;;0.80;;
71937;SDS011;59810;48.800;9.086;2022-11-21T15:27:40;5.18;;;0.80;;
71937;SDS011;59810;48.800;9.086;2022-11-21T15:38:02;4.47;;;0.90;;
71937;SDS011;59810;48.800;9.086;2022-11-21T15:40:38;8.40;;;1.10;;
71937;SDS011;59810;48.800;9.086;2022-11-21T15:43:06;5.57;;;0.70;;
71937;SDS011;59810;48.800;9.086;2022-11-21T15:45:33;2.83;;;0.40;;
71937;SDS011;59810;48.800;9.086;2022-11-21T15:47:58;3.07;;;0.60;;
71937;SDS011;59810;48.800;9.086;2022-11-21T15:50:24;4.18;;;0.73;;
71937;SDS011;59810;48.800;9.086;2022-11-21T15:52:51;6.40;;;0.90;;
71937;SDS011;59810;48.800;9.086;2022-11-21T15:55:18;2.75;;;0.60;;
71937;SDS011;59810;48.800;9.086;2022-11-21T15:57:45;3.70;;;0.70;;
71937;SDS011;59810;48.800;9.086;2022-11-21T16:00:10;5.47;;;0.70;;
71937;SDS011;59810;48.800;9.086;2022-11-21T16:02:36;6.25;;;0.65;;
71937;SDS011;59810;48.800;9.086;2022-11-21T16:05:01;6.00;;;0.80;;
71937;SDS011;59810;48.800;9.086;2022-11-21T16:07:29;4.85;;;0.63;;
71937;SDS011;59810;48.800;9.086;2022-11-21T16:09:54;7.23;;;1.03;;
71937;SDS011;59810;48.800;9.086;2022-11-21T16:12:22;2.97;;;0.50;;
71937;SDS011;59810;48.800;9.086;2022-11-21T16:14:47;10.20;;;0.60;;
71937;SDS011;59810;48.800;9.086;2022-11-21T16:17:12;5.70;;;0.70;;
71937;SDS011;59810;48.800;9.086;2022-11-21T16:19:39;8.27;;;0.70;;
71937;SDS011;59810;48.800;9.086;2022-11-21T16:22:07;5.07;;;0.70;;
71937;SDS011;59810;48.800;9.086;2022-11-21T16:24:32;6.90;;;1.20;;
71937;SDS011;59810;48.800;9.086;2022-11-21T16:26:58;4.15;;;0.65;;
71937;SDS011;59810;48.800;9.086;2022-11-21T16:29:23;5.23;;;0.80;;
71937;SDS011;59810;48.800;9.086;2022-11-21T16:31:48;4.53;;;0.70;;
71937;SDS011;59810;48.800;9.086;2022-11-21T16:34:18;6.07;;;1.20;;
71937;SDS011;59810;48.800;9.086;2022-11-21T16:36:44;3.33;;;0.77;;
71937;SDS011;59810;48.800;9.086;2022-11-21T16:39:09;3.47;;;0.70;;
71937;SDS011;59810;48.800;9.086;2022-11-21T16:41:37;8.47;;;0.70;;
71937;SDS011;59810;48.800;9.086;2022-11-21T16:44:04;5.85;;;1.00;;
71937;SDS011;59810;48.800;9.086;2022-11-21T16:46:40;4.50;;;0.80;;
71937;SDS011;59810;48.800;9.086;2022-11-21T16:49:07;3.90;;;0.68;;
71937;SDS011;59810;48.800;9.086;2022-11-21T16:51:33;5.05;;;1.00;;
71937;SDS011;59810;48.800;9.086;2022-11-21T16:54:01;5.57;;;1.23;;
71937;SDS011;59810;48.800;9.086;2022-11-21T16:56:26;5.87;;;1.10;;
71937;SDS011;59810;48.800;9.086;2022-11-21T16:58:53;9.13;;;2.78;;
71937;SDS011;59810;48.800;9.086;2022-11-21T17:01:22;11.60;;;3.53;;
71937;SDS011;59810;48.800;9.086;2022-11-21T17:03:49;7.43;;;1.30;;
71937;SDS011;59810;48.800;9.086;2022-11-21T17:06:17;3.58;;;0.80;;
71937;SDS011;59810;48.800;9.086;2022-11-21T17:08:44;7.63;;;1.17;;
71937;SDS011;59810;48.800;9.086;2022-11-21T17:11:10;10.53;;;3.10;;
71937;SDS011;59810;48.800;9.086;2022-11-21T17:13:40;7.63;;;1.65;;
71937;SDS011;59810;48.800;9.086;2022-11-21T17:16:06;7.72;;;1.90;;
71937;SDS011;59810;48.800;9.086;2022-11-21T17:18:32;5.50;;;1.83;;
71937;SDS011;59810;48.800;9.086;2022-11-21T17:20:57;7.60;;;2.30;;
71937;SDS011;59810;48.800;9.086;2022-11-21T17:23:23;8.80;;;1.40;;
71937;SDS011;59810;48.800;9.086;2022-11-21T17:25:48;4.23;;;1.50;;
71937;SDS011;59810;48.800;9.086;2022-11-21T17:28:13;5.33;;;1.57;;
71937;SDS011;59810;48.800;9.086;2022-11-21T17:30:41;5.13;;;1.70;;
71937;SDS011;59810;48.800;9.086;2022-11-21T17:33:08;5.88;;;1.80;;
71937;SDS011;59810;48.800;9.086;2022-11-21T17:35:34;7.03;;;1.83;;